Terminal Aerodrome Forecast
Issued by NWS Upton, NY

Home | Current Version | Previous Version | Text Only | Print | Product List | Glossary On
Versions: 1 2 3 4 5 6 7 8 9 10 11 12 13 14 15 16 17 18 19 20 21 22 23 24 25 26 27 28
000
FTUS41 KOKX 280500 RRA
TAFEWR
TAF
KEWR 280543Z 2806/2912 34010KT P6SM FEW050
     FM281300 33013G18KT P6SM SKC
     FM281800 32013KT P6SM FEW040
     FM290300 34011KT P6SM SKC=

USA.gov is the U.S. government's official web portal to all federal, state and local government web resources and services.